< < Back
Terminal Aerodrome Forecast


Current Version              Previous Versions:   1  2  3  4  5  6  7  8  9  

Terminal Aerodrome Forecast

843
FTUS42 KGSP 292333
TAFCLT
TAF
KCLT 292333Z 3000/3024 29007KT P6SM VCSH SCT060 BKN120
     FM300200 36006KT P6SM SCT250
     FM302100 03003KT P6SM SKC=

Latest METAR

249
SAUS70 KWBC 301300 RRC
MTRCLT
METAR KCLT 301252Z 36007KT 10SM CLR 11/06 A3008 RMK AO2 SLP182
T01110056


USA.gov is the U.S. government's official web portal to all federal, state and local government web resources and services.